Time;durP1;ratioP1;P1;durP2;ratioP2;P2;SDS_P1;SDS_P2;PMS_P1;PMS_P2;Temp;Humidity;BMP_temperature;BMP_pressure;BME280_temperature;BME280_humidity;BME280_pressure;Samples;Min_cycle;Max_cycle;Signal;HPM_P1;HPM_P2
2022/09/11 00:00:58;;;;;;;16.93;9.40;;;12.60;99.90;;;;;;4919400;29;20282;-79
2022/09/11 00:03:35;;;;;;;15.97;9.33;;;12.60;99.90;;;;;;4919568;29;20202;-78
2022/09/11 00:06:07;;;;;;;18.00;10.27;;;12.60;99.90;;;;;;4933579;29;20211;-78
2022/09/11 00:08:34;;;;;;;16.07;9.80;;;12.60;99.90;;;;;;4919493;29;20274;-78
2022/09/11 00:11:07;;;;;;;16.70;10.20;;;12.50;99.90;;;;;;4936430;29;20195;-79
2022/09/11 00:13:35;;;;;;;17.77;10.40;;;12.50;99.90;;;;;;4919056;29;20199;-78
2022/09/11 00:16:21;;;;;;;17.70;9.80;;;12.40;99.90;;;;;;4919212;29;20736;-78
2022/09/11 00:18:49;;;;;;;16.23;10.00;;;12.40;99.90;;;;;;4919610;29;20209;-79
2022/09/11 00:21:26;;;;;;;17.07;10.77;;;12.30;99.90;;;;;;4919056;29;20207;-79
2022/09/11 00:24:12;;;;;;;17.67;10.30;;;12.40;99.90;;;;;;4919302;29;20202;-80
2022/09/11 00:37:04;;;;;;;16.67;10.80;;;12.10;99.90;;;;;;5183467;23;20336;-80
2022/09/11 00:43:09;;;;;;;17.47;11.03;;;12.30;99.90;;;;;;4947669;23;20231;-78
2022/09/11 00:46:09;;;;;;;18.43;10.10;;;12.20;99.90;;;;;;5064926;23;20233;-78
2022/09/11 00:48:48;;;;;;;18.53;10.77;;;12.30;99.90;;;;;;4955087;29;20194;-79
2022/09/11 00:51:36;;;;;;;16.73;10.63;;;12.30;99.90;;;;;;4954389;28;20222;-78
2022/09/11 00:54:11;;;;;;;16.87;9.63;;;12.30;99.90;;;;;;4937696;29;20194;-78
2022/09/11 00:57:01;;;;;;;16.37;10.27;;;12.40;99.90;;;;;;4940040;29;20687;-79
2022/09/11 01:00:07;;;;;;;13.63;9.20;;;12.40;99.90;;;;;;4958886;28;20289;-79
2022/09/11 01:02:52;;;;;;;12.60;8.30;;;12.20;99.90;;;;;;4944423;23;20742;-79
2022/09/11 01:05:33;;;;;;;13.27;8.60;;;12.10;99.90;;;;;;4938170;29;20210;-78
2022/09/11 01:08:09;;;;;;;12.60;7.90;;;12.00;99.90;;;;;;4939477;29;20281;-79
2022/09/11 01:10:56;;;;;;;12.50;8.13;;;12.00;99.90;;;;;;4938557;29;20261;-79
2022/09/11 01:14:20;;;;;;;12.83;8.43;;;11.90;99.90;;;;;;4938052;29;20214;-79
2022/09/11 01:17:27;;;;;;;13.13;8.13;;;12.00;99.90;;;;;;4846448;29;20229;-79
2022/09/11 01:20:35;;;;;;;12.10;8.27;;;12.00;99.90;;;;;;4846768;29;20220;-78
2022/09/11 01:23:21;;;;;;;13.47;8.40;;;11.90;99.90;;;;;;4846444;29;20663;-78
2022/09/11 01:26:42;;;;;;;13.23;8.33;;;12.00;99.90;;;;;;4846252;29;20205;-79
2022/09/11 01:29:38;;;;;;;14.17;8.97;;;12.00;99.90;;;;;;4846560;29;20217;-79
2022/09/11 01:32:26;;;;;;;13.27;8.20;;;12.10;99.90;;;;;;4845933;29;20201;-79
2022/09/11 01:35:24;;;;;;;14.07;8.83;;;12.20;99.90;;;;;;4845501;29;20722;-79
2022/09/11 01:38:25;;;;;;;13.80;9.57;;;12.20;99.90;;;;;;4839321;29;20269;-79
2022/09/11 01:41:35;;;;;;;15.10;10.10;;;12.30;99.90;;;;;;4910127;23;20226;-80
2022/09/11 01:44:32;;;;;;;16.00;10.13;;;12.20;99.90;;;;;;4845896;29;20208;-80
2022/09/11 01:47:18;;;;;;;14.93;10.03;;;12.10;99.90;;;;;;4846150;29;20206;-80
2022/09/11 01:50:32;;;;;;;16.27;11.00;;;12.10;99.90;;;;;;4861300;29;20235;-79
2022/09/11 01:53:12;;;;;;;16.10;10.57;;;12.00;99.90;;;;;;4911898;23;20242;-79
2022/09/11 01:56:04;;;;;;;17.23;10.80;;;11.90;99.90;;;;;;4922093;29;20211;-79
2022/09/11 01:58:46;;;;;;;18.60;11.23;;;11.90;99.90;;;;;;4890465;23;20406;-79
2022/09/11 02:01:48;;;;;;;20.07;12.40;;;11.90;99.90;;;;;;4921189;29;20209;-79
2022/09/11 02:04:32;;;;;;;19.33;11.57;;;11.90;99.90;;;;;;4921426;29;20723;-79
2022/09/11 02:07:50;;;;;;;;;;;;;;;;;;;;;
2022/09/11 02:11:07;;;;;;;19.37;11.87;;;12.00;99.90;;;;;;4921492;29;20597;-78
2022/09/11 02:14:20;;;;;;;19.37;12.57;;;12.00;99.90;;;;;;4845233;29;20834;-80
2022/09/11 02:17:03;;;;;;;18.40;12.10;;;12.00;99.90;;;;;;4828309;29;20236;-80
2022/09/11 02:19:35;;;;;;;16.93;11.77;;;11.80;99.90;;;;;;4845970;29;20225;-80
2022/09/11 02:22:11;;;;;;;18.87;12.50;;;11.80;99.90;;;;;;4845521;29;20217;-80
2022/09/11 02:24:38;;;;;;;20.90;13.20;;;11.80;99.90;;;;;;4861048;29;20201;-80
2022/09/11 02:27:22;;;;;;;22.07;13.70;;;11.90;99.90;;;;;;4861018;29;20205;-80
2022/09/11 02:29:52;;;;;;;22.47;14.00;;;11.80;99.90;;;;;;4906737;23;20325;-79
2022/09/11 02:32:25;;;;;;;21.27;14.40;;;11.80;99.90;;;;;;4940039;29;20684;-79
2022/09/11 02:34:59;;;;;;;22.33;14.43;;;11.90;99.90;;;;;;4940271;29;20557;-80
2022/09/11 02:38:09;;;;;;;21.00;14.00;;;11.90;99.90;;;;;;4957017;29;20214;-79
2022/09/11 02:41:22;;;;;;;24.43;14.67;;;11.80;99.90;;;;;;4957154;29;20190;-79
2022/09/11 02:44:35;;;;;;;23.50;14.30;;;11.70;99.90;;;;;;4860469;29;20198;-80
2022/09/11 02:47:35;;;;;;;22.97;14.23;;;11.70;99.90;;;;;;4754861;30;20213;-81
2022/09/11 02:50:33;;;;;;;23.33;15.10;;;11.80;99.90;;;;;;4769745;30;20324;-83
2022/09/11 02:53:28;;;;;;;23.07;14.27;;;11.70;99.90;;;;;;4769523;30;20257;-80
2022/09/11 02:57:05;;;;;;;24.87;14.93;;;11.70;99.90;;;;;;4919191;23;20280;-79
2022/09/11 02:59:38;;;;;;;23.63;14.67;;;11.70;99.90;;;;;;4923788;29;20238;-79
2022/09/11 03:02:24;;;;;;;22.47;14.23;;;11.60;99.90;;;;;;4939269;29;20556;-79
2022/09/11 03:04:51;;;;;;;22.17;14.23;;;11.60;99.90;;;;;;4939615;29;20671;-80
2022/09/11 03:07:24;;;;;;;26.87;14.80;;;11.70;99.90;;;;;;4956574;29;20193;-80
2022/09/11 03:09:51;;;;;;;23.77;15.83;;;11.60;99.90;;;;;;4940291;29;20198;-86
2022/09/11 03:12:19;;;;;;;23.60;15.30;;;11.70;99.90;;;;;;4939730;29;20190;-82
2022/09/11 03:14:47;;;;;;;24.27;15.37;;;11.70;99.90;;;;;;4956446;29;20191;-85
2022/09/11 03:17:20;;;;;;;26.43;15.77;;;11.70;99.90;;;;;;4939349;29;20714;-84
2022/09/11 03:19:47;;;;;;;22.77;14.53;;;11.80;99.90;;;;;;4939032;29;20198;-80
2022/09/11 03:22:14;;;;;;;21.07;14.23;;;11.90;99.90;;;;;;4939172;29;20209;-81
2022/09/11 03:24:47;;;;;;;22.57;14.43;;;11.80;99.90;;;;;;4939205;29;20198;-78
2022/09/11 03:27:28;;;;;;;22.63;14.00;;;11.80;99.90;;;;;;4938388;29;20288;-83
2022/09/11 03:29:58;;;;;;;19.87;12.90;;;11.80;99.90;;;;;;4939082;29;20293;-77
2022/09/11 03:32:25;;;;;;;20.17;13.17;;;11.70;99.90;;;;;;4938929;29;20202;-83
2022/09/11 03:34:51;;;;;;;21.57;13.30;;;11.70;99.90;;;;;;4939130;29;20202;-77
2022/09/11 03:37:19;;;;;;;19.90;13.63;;;11.80;99.90;;;;;;4939029;29;20229;-84
2022/09/11 03:39:53;;;;;;;18.33;11.37;;;11.80;99.90;;;;;;4955970;29;20278;-77
2022/09/11 03:42:20;;;;;;;19.30;11.60;;;11.80;99.90;;;;;;4938938;29;20193;-76
2022/09/11 03:44:47;;;;;;;17.27;10.93;;;11.90;99.90;;;;;;4939270;29;20194;-77
2022/09/11 03:47:20;;;;;;;18.43;11.77;;;11.80;99.90;;;;;;4938810;29;20198;-77
2022/09/11 03:49:48;;;;;;;18.73;11.57;;;11.80;99.90;;;;;;4940288;29;20268;-76
2022/09/11 03:52:21;;;;;;;18.80;11.60;;;11.80;99.90;;;;;;4938450;29;20206;-76
2022/09/11 03:54:49;;;;;;;18.37;11.40;;;11.70;99.90;;;;;;4951064;29;20201;-81
2022/09/11 03:57:18;;;;;;;18.37;11.73;;;11.80;99.90;;;;;;4958001;29;20222;-86
2022/09/11 03:59:46;;;;;;;18.00;11.63;;;11.80;99.90;;;;;;4938298;29;20198;-88
2022/09/11 04:02:26;;;;;;;17.23;11.77;;;11.80;99.90;;;;;;4938168;29;20284;-82
2022/09/11 04:04:53;;;;;;;18.97;11.87;;;11.80;99.90;;;;;;4929581;29;20202;-74
2022/09/11 04:07:20;;;;;;;17.40;11.10;;;11.80;99.90;;;;;;4933816;29;20202;-76
2022/09/11 04:09:47;;;;;;;16.00;10.57;;;11.90;99.90;;;;;;4931812;29;20198;-75
2022/09/11 04:12:15;;;;;;;17.73;11.43;;;11.80;99.90;;;;;;4931701;29;20206;-77
2022/09/11 04:14:42;;;;;;;17.67;11.00;;;11.70;99.90;;;;;;4946185;29;20190;-76
2022/09/11 04:17:09;;;;;;;16.60;11.53;;;11.70;99.90;;;;;;4954654;29;20626;-77
2022/09/11 04:19:36;;;;;;;16.87;11.43;;;11.80;99.90;;;;;;4949970;29;20186;-76
2022/09/11 04:22:03;;;;;;;17.27;11.43;;;11.80;99.90;;;;;;4919325;29;20205;-76
2022/09/11 04:24:31;;;;;;;17.10;11.33;;;11.70;99.90;;;;;;4955115;29;20190;-79
2022/09/11 04:26:59;;;;;;;17.07;10.47;;;11.70;99.90;;;;;;4956026;29;20190;-77
2022/09/11 04:29:27;;;;;;;16.20;10.50;;;11.80;99.90;;;;;;4941767;28;20652;-78
2022/09/11 04:31:55;;;;;;;17.83;11.10;;;11.80;99.90;;;;;;4937637;29;20257;-85
2022/09/11 04:34:22;;;;;;;15.47;10.23;;;11.90;99.90;;;;;;4956267;29;20750;-79
2022/09/11 04:36:49;;;;;;;18.37;10.70;;;11.80;99.90;;;;;;4938090;29;20226;-78
2022/09/11 04:39:16;;;;;;;17.33;10.70;;;11.70;99.90;;;;;;4938141;29;20206;-83
2022/09/11 04:41:43;;;;;;;17.17;11.37;;;11.60;99.90;;;;;;4939267;29;20202;-80
2022/09/11 04:44:10;;;;;;;18.20;11.20;;;11.60;99.90;;;;;;4938265;29;20213;-78
2022/09/11 04:46:37;;;;;;;19.27;11.33;;;11.70;99.90;;;;;;4939841;29;20245;-81
2022/09/11 04:49:04;;;;;;;16.77;10.37;;;11.70;99.90;;;;;;4937740;29;20198;-76
2022/09/11 04:51:35;;;;;;;17.23;10.83;;;11.60;99.90;;;;;;4937244;29;20222;-77
2022/09/11 04:54:03;;;;;;;16.90;10.73;;;11.60;99.90;;;;;;4937590;29;20198;-78
2022/09/11 04:56:33;;;;;;;18.33;11.03;;;11.60;99.90;;;;;;4934972;29;20238;-76
2022/09/11 04:59:08;;;;;;;17.67;10.60;;;11.60;99.90;;;;;;4934694;29;20201;-77
2022/09/11 05:01:35;;;;;;;17.17;11.00;;;11.60;99.90;;;;;;4934555;29;20572;-80
2022/09/11 05:04:05;;;;;;;17.90;11.10;;;11.60;99.90;;;;;;4934714;29;20699;-76
2022/09/11 05:06:32;;;;;;;16.17;11.50;;;11.50;99.90;;;;;;4936232;29;20221;-78
2022/09/11 05:09:02;;;;;;;15.30;10.80;;;11.60;99.90;;;;;;4934597;29;20209;-79
2022/09/11 05:11:29;;;;;;;16.37;10.80;;;11.60;99.90;;;;;;4934596;29;20207;-76
2022/09/11 05:13:59;;;;;;;17.93;10.70;;;11.60;99.90;;;;;;4935580;29;20545;-80
2022/09/11 05:16:28;;;;;;;17.77;11.03;;;11.70;99.90;;;;;;4933330;29;20199;-79
2022/09/11 05:18:56;;;;;;;15.83;10.53;;;11.70;99.90;;;;;;4935804;29;20206;-78
2022/09/11 05:21:24;;;;;;;13.30;9.10;;;11.70;99.90;;;;;;4934683;29;20210;-77
2022/09/11 05:23:54;;;;;;;12.73;8.87;;;11.70;99.90;;;;;;4934260;29;20209;-75
2022/09/11 05:26:23;;;;;;;12.90;8.83;;;11.80;99.90;;;;;;4933531;29;20271;-79
2022/09/11 05:31:58;;;;;;;11.50;7.43;;;11.60;99.90;;;;;;4934284;29;20213;-76
2022/09/11 05:34:27;;;;;;;11.87;7.70;;;11.60;99.90;;;;;;4934419;29;20199;-80
2022/09/11 05:36:58;;;;;;;10.33;7.40;;;11.60;99.90;;;;;;4934165;29;20250;-77
2022/09/11 05:39:25;;;;;;;10.97;7.33;;;11.50;99.90;;;;;;4934446;29;20203;-76
2022/09/11 05:41:54;;;;;;;9.60;7.07;;;11.50;99.90;;;;;;4935599;29;20198;-76
2022/09/11 05:44:29;;;;;;;11.43;7.37;;;11.60;99.90;;;;;;4937747;29;20324;-80
2022/09/11 05:47:05;;;;;;;9.47;6.67;;;11.60;99.90;;;;;;4940633;29;20202;-89
2022/09/11 05:50:00;;;;;;;10.57;7.60;;;11.60;99.90;;;;;;4937786;29;20199;-77
2022/09/11 05:52:29;;;;;;;10.60;7.00;;;11.60;99.90;;;;;;4937431;29;20211;-78
2022/09/11 05:54:57;;;;;;;9.73;6.67;;;11.70;99.90;;;;;;4942092;29;20241;-79
2022/09/11 05:57:33;;;;;;;9.23;6.40;;;11.70;99.90;;;;;;4939762;29;20583;-77
2022/09/11 06:00:06;;;;;;;7.67;6.03;;;11.80;99.90;;;;;;4939545;29;20629;-81
2022/09/11 06:02:33;;;;;;;10.50;7.03;;;11.70;99.90;;;;;;4940015;29;20205;-77
2022/09/11 06:05:00;;;;;;;9.53;6.60;;;11.70;99.90;;;;;;4939547;29;20206;-79
2022/09/11 06:07:27;;;;;;;9.43;6.53;;;11.60;99.90;;;;;;4939608;29;20198;-77
2022/09/11 06:09:58;;;;;;;10.73;6.63;;;11.70;99.90;;;;;;4923893;29;20206;-81
2022/09/11 06:12:32;;;;;;;10.20;7.27;;;11.70;99.90;;;;;;4939304;29;20205;-81
2022/09/11 06:14:58;;;;;;;10.60;7.00;;;11.70;99.90;;;;;;4939018;29;20225;-78
2022/09/11 06:17:27;;;;;;;9.37;6.90;;;11.80;99.90;;;;;;4956687;29;20232;-81
2022/09/11 06:19:56;;;;;;;11.23;7.10;;;11.70;99.90;;;;;;4923851;29;20209;-79
2022/09/11 06:22:23;;;;;;;9.70;6.63;;;11.60;99.90;;;;;;4939276;29;20586;-79
2022/09/11 06:24:50;;;;;;;9.63;6.57;;;11.50;99.90;;;;;;4939314;29;20564;-76
2022/09/11 06:27:17;;;;;;;10.97;7.17;;;11.40;99.90;;;;;;4939207;29;20229;-79
2022/09/11 06:29:44;;;;;;;9.90;6.87;;;11.50;99.90;;;;;;4939163;29;20646;-78
2022/09/11 06:32:11;;;;;;;9.90;7.23;;;11.50;99.90;;;;;;4938836;29;20198;-78
2022/09/11 06:34:38;;;;;;;13.07;8.03;;;11.40;99.90;;;;;;4939337;29;20209;-80
2022/09/11 06:37:08;;;;;;;11.57;7.97;;;11.50;99.90;;;;;;4939250;29;20214;-77
2022/09/11 06:39:38;;;;;;;11.00;7.90;;;11.50;99.90;;;;;;4939012;29;20213;-78
2022/09/11 06:42:06;;;;;;;10.37;7.47;;;11.60;99.90;;;;;;4938980;29;20609;-81
2022/09/11 06:44:34;;;;;;;11.20;7.57;;;11.60;99.90;;;;;;4939238;29;20552;-78
2022/09/11 06:47:00;;;;;;;10.20;7.43;;;11.50;99.90;;;;;;4938645;29;20194;-80
2022/09/11 06:49:53;;;;;;;11.13;7.40;;;11.50;99.90;;;;;;4903338;23;1113271;-79
2022/09/11 06:52:20;;;;;;;11.77;7.73;;;11.50;99.90;;;;;;4920651;29;20542;-80
2022/09/11 06:54:48;;;;;;;13.43;8.47;;;11.60;99.90;;;;;;4920076;29;20202;-78
2022/09/11 06:57:15;;;;;;;12.97;8.13;;;11.60;99.90;;;;;;4937796;29;20218;-79
2022/09/11 06:59:43;;;;;;;12.83;8.23;;;11.70;99.90;;;;;;4921202;29;20549;-80
2022/09/11 07:02:10;;;;;;;11.53;7.97;;;11.60;99.90;;;;;;4920160;29;20207;-79
2022/09/11 07:04:38;;;;;;;13.87;8.50;;;11.70;99.90;;;;;;4920844;29;20210;-81
2022/09/11 07:07:05;;;;;;;13.40;7.47;;;11.60;99.90;;;;;;4920532;29;20206;-81
2022/09/11 07:09:32;;;;;;;10.63;7.87;;;11.60;99.90;;;;;;4919970;29;20641;-75
2022/09/11 07:11:58;;;;;;;12.60;8.30;;;11.60;99.90;;;;;;4920185;29;20215;-78
2022/09/11 07:14:28;;;;;;;14.10;8.53;;;11.70;99.90;;;;;;4920189;29;20537;-79
2022/09/11 07:16:55;;;;;;;13.87;8.90;;;11.60;99.90;;;;;;4920260;29;20728;-81
2022/09/11 07:19:24;;;;;;;12.80;8.17;;;11.70;99.90;;;;;;4937041;29;20595;-80
2022/09/11 07:21:51;;;;;;;11.07;7.97;;;11.70;99.90;;;;;;4920105;29;20636;-83
2022/09/11 07:24:24;;;;;;;11.17;8.07;;;11.80;99.90;;;;;;4937264;29;20546;-80
2022/09/11 07:26:54;;;;;;;11.57;7.97;;;11.70;99.90;;;;;;4920162;29;20242;-83
2022/09/11 07:29:21;;;;;;;13.80;7.73;;;11.80;99.90;;;;;;4937239;29;20563;-78
2022/09/11 07:31:49;;;;;;;12.07;7.70;;;11.70;99.90;;;;;;4904230;29;20207;-79
2022/09/11 07:34:15;;;;;;;11.63;7.70;;;11.80;99.90;;;;;;4936970;29;20214;-80
2022/09/11 07:36:43;;;;;;;10.97;7.70;;;11.70;99.90;;;;;;4919162;29;20199;-80
2022/09/11 07:39:13;;;;;;;11.37;7.70;;;11.70;99.90;;;;;;4936305;29;20257;-81
2022/09/11 07:41:40;;;;;;;12.87;7.40;;;11.70;99.90;;;;;;4920169;29;20202;-80
2022/09/11 07:44:25;;;;;;;11.73;8.10;;;11.80;99.90;;;;;;4920170;29;20210;-83
2022/09/11 07:46:52;;;;;;;10.33;7.77;;;11.70;99.90;;;;;;4903824;29;20214;-85
2022/09/11 07:49:19;;;;;;;12.93;7.97;;;11.80;99.90;;;;;;4919476;29;20237;-79
2022/09/11 07:51:46;;;;;;;10.83;7.70;;;11.80;99.90;;;;;;4919250;29;20225;-82
2022/09/11 07:54:13;;;;;;;12.53;8.07;;;11.80;99.90;;;;;;4936098;29;20217;-78
2022/09/11 07:56:40;;;;;;;12.30;7.90;;;11.80;99.90;;;;;;4903092;29;20187;-83
2022/09/11 07:59:08;;;;;;;13.23;7.77;;;11.90;99.90;;;;;;4936127;29;20215;-80
2022/09/11 08:01:35;;;;;;;12.40;7.70;;;11.90;99.90;;;;;;4918498;29;20203;-81
2022/09/11 08:04:24;;;;;;;12.90;7.67;;;11.70;99.90;;;;;;4933256;29;20214;-80
2022/09/11 08:06:51;;;;;;;12.40;7.90;;;11.70;99.90;;;;;;4918903;29;20675;-79
2022/09/11 08:09:25;;;;;;;12.53;7.77;;;11.60;99.90;;;;;;4935724;29;20191;-78
2022/09/11 08:11:52;;;;;;;12.90;7.50;;;11.50;99.90;;;;;;4936097;29;20218;-79
2022/09/11 08:17:03;;;;;;;10.97;7.60;;;11.40;99.90;;;;;;4926685;29;20223;-81
2022/09/11 08:19:43;;;;;;;12.77;8.03;;;11.50;99.90;;;;;;5160103;23;20763;-77
2022/09/11 08:22:11;;;;;;;14.13;7.97;;;11.50;99.90;;;;;;4918629;29;20298;-78
2022/09/11 08:24:39;;;;;;;14.43;8.43;;;11.50;99.90;;;;;;4903776;29;20202;-74
2022/09/11 08:27:15;;;;;;;13.03;8.20;;;11.50;99.90;;;;;;4934655;29;20622;-75
2022/09/11 08:29:42;;;;;;;14.33;8.50;;;11.40;99.90;;;;;;4919062;29;20213;-74
2022/09/11 08:32:16;;;;;;;14.93;9.03;;;11.40;99.90;;;;;;4934639;29;20207;-77
2022/09/11 08:34:56;;;;;;;13.23;8.43;;;11.50;99.90;;;;;;4919127;29;20221;-78
2022/09/11 08:37:35;;;;;;;13.57;8.67;;;11.40;99.90;;;;;;4918932;29;20195;-80
2022/09/11 08:40:17;;;;;;;15.43;9.60;;;11.30;99.90;;;;;;4918532;29;20222;-82
2022/09/11 08:42:45;;;;;;;17.30;8.67;;;11.30;99.90;;;;;;4934348;29;20270;-78
2022/09/11 08:46:08;;;;;;;13.73;8.73;;;11.40;99.90;;;;;;4918648;29;20202;-80
2022/09/11 08:49:04;;;;;;;12.63;7.93;;;11.40;99.90;;;;;;4842357;29;20214;-81
2022/09/11 08:54:55;;;;;;;14.33;9.00;;;11.40;99.90;;;;;;4932265;29;20301;-80
2022/09/11 08:58:06;;;;;;;13.93;8.27;;;11.40;99.90;;;;;;4903052;29;20667;-80
2022/09/11 09:01:08;;;;;;;13.27;8.70;;;11.30;99.90;;;;;;4902575;29;20642;-80
2022/09/11 09:04:20;;;;;;;14.53;8.90;;;11.30;99.90;;;;;;4924818;23;20262;-80
2022/09/11 09:07:44;;;;;;;13.83;8.47;;;11.30;99.90;;;;;;4915192;29;20310;-81
2022/09/11 09:10:50;;;;;;;16.43;8.77;;;11.40;99.90;;;;;;4899022;29;20203;-76
2022/09/11 09:13:41;;;;;;;13.57;8.43;;;11.30;99.90;;;;;;4916475;29;20219;-82
2022/09/11 09:16:35;;;;;;;13.37;7.80;;;11.30;99.90;;;;;;4915611;29;20573;-78
2022/09/11 09:19:13;;;;;;;11.37;7.33;;;11.20;99.90;;;;;;4919085;29;20223;-80
2022/09/11 09:21:44;;;;;;;11.67;6.90;;;11.30;99.90;;;;;;4919733;29;20216;-77
2022/09/11 09:24:18;;;;;;;12.17;6.90;;;11.20;99.90;;;;;;4919146;29;20239;-76
2022/09/11 09:26:55;;;;;;;11.80;6.87;;;11.20;99.90;;;;;;4920489;29;20203;-76
2022/09/11 09:29:40;;;;;;;10.20;6.07;;;11.20;99.90;;;;;;4918849;29;20200;-84
2022/09/11 09:35:08;;;;;;;8.80;5.20;;;11.10;99.90;;;;;;4956996;28;20609;-82
2022/09/11 09:37:49;;;;;;;9.60;5.00;;;11.10;99.90;;;;;;4958022;28;20202;-75
2022/09/11 09:40:17;;;;;;;8.60;5.43;;;11.00;99.90;;;;;;4958125;29;20186;-74
2022/09/11 09:43:34;;;;;;;8.87;5.40;;;10.80;99.90;;;;;;4940771;29;20205;-82
2022/09/11 09:49:17;;;;;;;9.17;5.83;;;10.70;99.90;;;;;;5066486;23;20238;-82
2022/09/11 09:51:55;;;;;;;8.07;5.60;;;10.80;99.90;;;;;;4920924;29;20219;-80
2022/09/11 09:57:06;;;;;;;7.80;5.00;;;10.80;99.90;;;;;;4938794;29;20206;-81
2022/09/11 09:59:40;;;;;;;6.70;4.83;;;10.80;99.90;;;;;;4940392;29;20229;-81
2022/09/11 10:02:07;;;;;;;8.60;5.07;;;10.90;99.90;;;;;;4940296;28;20207;-80
2022/09/11 10:07:21;;;;;;;9.13;4.87;;;10.70;99.90;;;;;;4934361;29;20277;-83
2022/09/11 10:10:02;;;;;;;10.90;5.27;;;10.60;99.90;;;;;;4936757;29;20212;-84
2022/09/11 10:12:45;;;;;;;8.83;5.67;;;10.70;99.90;;;;;;4940181;29;20230;-77
2022/09/11 10:15:31;;;;;;;11.30;6.10;;;10.70;99.90;;;;;;4939887;29;20293;-80
2022/09/11 10:18:22;;;;;;;7.50;5.27;;;10.70;99.90;;;;;;4939768;29;20640;-80
2022/09/11 10:21:42;;;;;;;8.67;5.60;;;10.80;99.90;;;;;;4956620;29;20201;-81
2022/09/11 10:24:29;;;;;;;8.80;4.77;;;10.80;99.90;;;;;;4924200;29;20203;-81
2022/09/11 10:26:57;;;;;;;7.97;4.73;;;10.80;99.90;;;;;;4933447;23;20242;-82
2022/09/11 10:29:28;;;;;;;7.13;4.50;;;10.80;99.90;;;;;;4919796;29;20207;-81
2022/09/11 10:32:16;;;;;;;7.17;4.37;;;10.90;99.90;;;;;;4937484;29;20187;-81
2022/09/11 10:34:52;;;;;;;8.70;4.70;;;11.00;99.90;;;;;;4920623;29;20203;-80
2022/09/11 10:37:39;;;;;;;8.07;4.63;;;11.00;99.90;;;;;;4920737;29;20203;-78
2022/09/11 10:40:17;;;;;;;6.40;4.70;;;11.10;99.90;;;;;;4937285;29;20222;-78
2022/09/11 10:42:59;;;;;;;6.13;4.43;;;11.10;99.90;;;;;;4904826;29;20217;-80
2022/09/11 10:45:26;;;;;;;8.90;5.40;;;11.10;99.90;;;;;;4920466;29;20203;-79
2022/09/11 10:48:27;;;;;;;7.23;4.90;;;11.10;99.90;;;;;;4904742;29;20199;-82
2022/09/11 10:51:22;;;;;;;6.83;4.60;;;11.20;99.90;;;;;;4920300;29;20703;-79
2022/09/11 10:54:25;;;;;;;7.80;5.03;;;11.10;99.90;;;;;;4920290;29;20236;-80
2022/09/11 10:57:39;;;;;;;9.20;5.50;;;11.20;99.90;;;;;;4904511;29;20206;-79
2022/09/11 11:00:26;;;;;;;10.30;5.40;;;11.30;99.90;;;;;;4920465;29;20223;-78
2022/09/11 11:03:04;;;;;;;9.00;5.73;;;11.40;99.90;;;;;;4920448;29;20536;-79
2022/09/11 11:06:08;;;;;;;9.10;5.67;;;11.60;99.90;;;;;;4904460;29;20739;-80
2022/09/11 11:09:06;;;;;;;8.67;5.13;;;11.90;99.90;;;;;;4920037;29;20576;-78
2022/09/11 11:12:05;;;;;;;8.57;4.83;;;12.10;99.90;;;;;;4920203;29;20195;-79
2022/09/11 11:14:53;;;;;;;7.97;5.30;;;12.10;99.90;;;;;;4936808;29;20217;-82
2022/09/11 11:18:05;;;;;;;9.17;5.07;;;12.30;99.90;;;;;;4919868;29;20207;-83
2022/09/11 11:20:57;;;;;;;10.63;5.70;;;12.40;99.90;;;;;;4919669;29;20622;-83
2022/09/11 11:24:02;;;;;;;8.70;5.90;;;12.70;99.90;;;;;;4919681;29;20194;-83
2022/09/11 11:30:59;;;;;;;9.03;6.17;;;13.20;99.90;;;;;;4936976;28;20237;-79
2022/09/11 11:33:54;;;;;;;12.27;6.27;;;13.10;99.90;;;;;;4954857;28;20529;-77
2022/09/11 11:36:24;;;;;;;11.03;6.17;;;13.10;99.90;;;;;;4938664;29;20239;-75
2022/09/11 11:38:59;;;;;;;11.37;6.47;;;13.10;99.90;;;;;;4922978;29;20226;-78
2022/09/11 11:41:35;;;;;;;11.23;6.23;;;13.00;99.90;;;;;;4938765;29;20257;-78
2022/09/11 11:44:17;;;;;;;8.70;5.90;;;13.10;99.90;;;;;;4938562;29;20205;-77
2022/09/11 11:46:59;;;;;;;12.30;6.93;;;13.10;99.90;;;;;;4938807;29;20202;-80
2022/09/11 11:49:44;;;;;;;11.60;6.10;;;13.30;99.90;;;;;;4955566;28;20221;-82
2022/09/11 11:52:14;;;;;;;9.83;6.57;;;13.30;99.90;;;;;;4919360;29;20209;-79
2022/09/11 11:54:52;;;;;;;11.60;7.17;;;13.30;99.90;;;;;;4904051;29;20191;-78
2022/09/11 11:57:24;;;;;;;11.30;6.57;;;13.30;99.90;;;;;;4919552;29;20306;-81
2022/09/11 12:00:18;;;;;;;10.43;6.73;;;13.30;99.90;;;;;;4919199;29;20692;-81
2022/09/11 12:02:53;;;;;;;10.83;6.90;;;13.60;99.90;;;;;;4916150;29;20206;-78
2022/09/11 12:05:27;;;;;;;10.37;6.70;;;13.70;99.90;;;;;;4918542;29;20207;-80
2022/09/11 12:08:16;;;;;;;13.73;6.70;;;13.80;99.90;;;;;;4900251;29;20191;-81
2022/09/11 12:11:06;;;;;;;13.20;7.07;;;14.00;99.90;;;;;;4897420;29;20242;-80
2022/09/11 12:13:46;;;;;;;11.50;6.77;;;14.20;99.90;;;;;;4884449;29;20205;-82
2022/09/11 12:16:30;;;;;;;12.50;6.00;;;14.30;99.90;;;;;;4915864;29;20197;-79
2022/09/11 12:19:12;;;;;;;13.33;6.83;;;14.30;99.90;;;;;;4900320;29;20219;-78
2022/09/11 12:22:00;;;;;;;9.27;6.30;;;14.60;99.90;;;;;;4899780;29;20808;-79
2022/09/11 12:24:46;;;;;;;9.63;6.10;;;14.60;99.90;;;;;;4916886;29;20591;-78
2022/09/11 12:27:36;;;;;;;11.13;6.20;;;14.70;99.90;;;;;;4899899;29;20654;-78
2022/09/11 12:30:25;;;;;;;12.27;5.67;;;14.70;99.90;;;;;;4912191;29;20773;-80
2022/09/11 12:33:08;;;;;;;11.00;5.90;;;14.60;99.90;;;;;;4896791;29;20315;-77
2022/09/11 12:35:52;;;;;;;10.03;6.10;;;14.70;99.90;;;;;;4896012;29;20200;-81
2022/09/11 12:38:24;;;;;;;8.80;6.03;;;14.70;99.90;;;;;;4896631;29;20268;-76
2022/09/11 12:40:57;;;;;;;8.37;5.50;;;14.70;99.90;;;;;;4896716;29;20209;-76
2022/09/11 12:43:29;;;;;;;9.10;5.20;;;14.70;99.90;;;;;;4912485;29;20204;-76
2022/09/11 12:45:56;;;;;;;7.67;5.53;;;14.80;99.90;;;;;;4897840;29;20207;-80
2022/09/11 12:48:41;;;;;;;9.30;5.07;;;14.80;99.90;;;;;;4896447;29;20210;-79
2022/09/11 12:51:22;;;;;;;8.37;5.07;;;14.80;99.90;;;;;;4895569;29;20712;-75
2022/09/11 12:53:54;;;;;;;8.87;4.67;;;14.90;99.90;;;;;;4896555;29;20665;-75
2022/09/11 12:56:24;;;;;;;9.23;5.10;;;15.00;99.90;;;;;;4912229;29;20204;-77
2022/09/11 12:59:01;;;;;;;7.43;4.50;;;15.10;99.90;;;;;;4896453;29;20597;-79
2022/09/11 13:01:37;;;;;;;10.07;5.17;;;15.40;99.90;;;;;;4896412;29;20200;-75
2022/09/11 13:04:10;;;;;;;8.67;4.70;;;15.40;99.90;;;;;;4896362;29;20302;-74
2022/09/11 13:06:42;;;;;;;7.23;4.77;;;15.50;99.90;;;;;;4912210;29;20298;-78
2022/09/11 13:09:32;;;;;;;9.37;4.57;;;15.80;99.90;;;;;;4912183;29;20370;-75
2022/09/11 13:12:20;;;;;;;7.93;4.50;;;15.70;99.90;;;;;;4896242;29;20200;-77
2022/09/11 13:14:54;;;;;;;8.17;4.83;;;15.80;99.90;;;;;;4912269;29;20210;-77
2022/09/11 13:17:48;;;;;;;9.23;4.37;;;16.10;99.90;;;;;;4917799;29;20294;-80
2022/09/11 13:20:36;;;;;;;6.93;4.50;;;16.20;99.90;;;;;;4916085;29;20612;-79
2022/09/11 13:23:19;;;;;;;7.53;4.00;;;16.20;99.90;;;;;;4930864;29;20219;-76
2022/09/11 13:25:47;;;;;;;7.30;3.83;;;16.40;99.90;;;;;;4915001;29;20203;-79
2022/09/11 13:28:15;;;;;;;6.67;4.00;;;16.40;99.90;;;;;;4918340;29;20665;-77
2022/09/11 13:31:00;;;;;;;8.80;3.40;;;16.50;99.90;;;;;;4934239;29;20226;-82
2022/09/11 13:33:31;;;;;;;6.43;3.50;;;16.40;99.90;;;;;;4933664;29;20199;-80
2022/09/11 13:36:01;;;;;;;9.13;3.50;;;16.50;99.90;;;;;;4933629;29;20207;-77
2022/09/11 13:38:53;;;;;;;5.73;3.60;;;16.50;99.90;;;;;;4933502;29;20305;-83
2022/09/11 13:41:39;;;;;;;6.80;3.17;;;16.40;99.90;;;;;;4933577;29;20307;-79
2022/09/11 13:44:26;;;;;;;4.83;3.30;;;16.40;99.90;;;;;;4933848;29;20199;-79
2022/09/11 13:46:57;;;;;;;9.23;3.30;;;16.40;99.90;;;;;;4929225;29;20198;-84
2022/09/11 13:49:34;;;;;;;6.17;2.90;;;16.20;99.90;;;;;;4898740;29;20211;-83
2022/09/11 13:52:06;;;;;;;5.30;3.07;;;16.00;99.90;;;;;;4898210;29;20262;-77
2022/09/11 13:54:59;;;;;;;6.50;3.67;;;15.90;99.90;;;;;;4914595;29;20207;-82
2022/09/11 13:57:33;;;;;;;5.10;2.90;;;16.10;99.90;;;;;;4914698;29;20235;-78
2022/09/11 14:00:43;;;;;;;5.17;2.80;;;16.10;99.90;;;;;;4914521;29;20223;-83
2022/09/11 14:03:28;;;;;;;6.30;3.10;;;16.10;99.90;;;;;;4898853;29;20238;-80
2022/09/11 14:06:28;;;;;;;4.70;2.77;;;16.20;99.90;;;;;;4902464;29;20207;-78
2022/09/11 14:09:17;;;;;;;5.30;2.70;;;16.20;99.90;;;;;;4887630;29;20212;-81
2022/09/11 14:11:44;;;;;;;6.03;2.37;;;16.60;99.90;;;;;;4902341;29;20298;-79
2022/09/11 14:14:29;;;;;;;5.30;2.43;;;16.70;99.90;;;;;;4913457;23;20237;-81
2022/09/11 14:17:28;;;;;;;4.17;2.57;;;16.70;99.90;;;;;;4957455;28;20208;-80